Time;durP1;ratioP1;P1;durP2;ratioP2;P2;SDS_P1;SDS_P2;PMS_P1;PMS_P2;Temp;Humidity;BMP_temperature;BMP_pressure;BME280_temperature;BME280_humidity;BME280_pressure;Samples;Min_cycle;Max_cycle;Signal;HPM_P1;HPM_P2
2022/10/12 00:00:56;;;;;;;;;;;4.10;99.90;;;;;;5084731;28;19916;-76
2022/10/12 00:03:21;;;;;;;;;;;4.10;99.90;;;;;;5064397;28;20411;-76
2022/10/12 00:05:50;;;;;;;;;;;4.20;99.90;;;;;;5051978;28;19920;-75
2022/10/12 00:08:15;;;;;;;;;;;4.20;99.90;;;;;;5054432;28;19961;-76
2022/10/12 00:10:42;;;;;;;;;;;4.20;99.90;;;;;;5071040;28;20284;-76
2022/10/12 00:13:08;;;;;;;;;;;4.30;99.90;;;;;;5046774;28;20519;-77
2022/10/12 00:15:39;;;;;;;;;;;4.30;99.90;;;;;;5041312;28;20132;-76
2022/10/12 00:18:05;;;;;;;;;;;4.40;99.90;;;;;;5048240;28;20299;-76
2022/10/12 00:20:31;;;;;;;;;;;4.40;99.90;;;;;;5059739;28;19919;-76
2022/10/12 00:22:56;;;;;;;;;;;4.40;99.90;;;;;;5066497;28;20334;-77
2022/10/12 00:25:22;;;;;;;;;;;4.40;99.90;;;;;;5074869;28;19927;-76
2022/10/12 00:27:47;;;;;;;;;;;4.40;99.90;;;;;;5055423;28;19963;-76
2022/10/12 00:30:13;;;;;;;;;;;4.40;99.90;;;;;;5076371;28;19924;-76
2022/10/12 00:32:38;;;;;;;;;;;4.40;99.90;;;;;;5078717;28;19916;-76
2022/10/12 00:35:04;;;;;;;;;;;4.40;99.90;;;;;;5064397;28;20279;-76
2022/10/12 00:37:30;;;;;;;;;;;4.30;99.90;;;;;;5062493;28;19932;-76
2022/10/12 00:39:55;;;;;;;;;;;4.30;99.90;;;;;;5078942;28;20315;-76
2022/10/12 00:42:21;;;;;;;;;;;4.30;99.90;;;;;;5056171;28;20024;-76
2022/10/12 00:44:48;;;;;;;;;;;4.20;99.90;;;;;;5061181;28;20304;-76
2022/10/12 00:47:32;;;;;;;;;;;4.20;99.90;;;;;;5043823;28;19928;-76
2022/10/12 00:49:58;;;;;;;;;;;4.10;99.90;;;;;;5078232;28;19924;-76
2022/10/12 00:52:26;;;;;;;;;;;4.10;99.90;;;;;;5065517;28;19920;-76
2022/10/12 00:54:53;;;;;;;;;;;4.00;99.90;;;;;;5051524;28;20012;-76
2022/10/12 00:57:18;;;;;;;;;;;4.00;99.90;;;;;;5039865;28;19974;-76
2022/10/12 00:59:50;;;;;;;;;;;4.00;99.90;;;;;;5062317;28;20367;-76
2022/10/12 01:02:16;;;;;;;;;;;3.90;99.90;;;;;;5045553;28;20007;-76
2022/10/12 01:04:41;;;;;;;;;;;3.90;99.90;;;;;;5045364;28;20076;-76
2022/10/12 01:07:07;;;;;;;;;;;3.90;99.90;;;;;;5044699;28;19924;-77
2022/10/12 01:09:32;;;;;;;;;;;3.80;99.90;;;;;;5074868;28;19916;-76
2022/10/12 01:11:58;;;;;;;;;;;3.80;99.90;;;;;;5064564;28;20015;-77
2022/10/12 01:14:24;;;;;;;;;;;3.80;99.90;;;;;;5044786;28;19927;-76
2022/10/12 01:16:53;;;;;;;;;;;3.70;99.90;;;;;;5045437;28;20515;-76
2022/10/12 01:19:28;;;;;;;;;;;3.70;99.90;;;;;;5052668;28;19928;-76
2022/10/12 01:21:59;;;;;;;;;;;3.70;99.90;;;;;;5065246;28;20474;-76
2022/10/12 01:24:43;;;;;;;;;;;3.70;99.90;;;;;;5078838;28;20295;-74
2022/10/12 01:27:12;;;;;;;;;;;3.70;99.90;;;;;;5062469;28;19925;-76
2022/10/12 01:30:07;;;;;;;;;;;3.70;99.90;;;;;;5077782;28;20003;-76
2022/10/12 01:32:37;;;;;;;;;;;3.70;99.90;;;;;;5038610;28;19944;-77
2022/10/12 01:35:06;;;;;;;;;;;3.80;99.90;;;;;;5064732;28;19912;-76
2022/10/12 01:37:34;;;;;;;;;;;3.80;99.90;;;;;;5083016;28;20023;-77
2022/10/12 01:40:03;;;;;;;;;;;3.80;99.90;;;;;;5065392;28;19923;-76
2022/10/12 01:42:31;;;;;;;;;;;3.80;99.90;;;;;;5070767;28;20360;-77
2022/10/12 01:45:01;;;;;;;;;;;3.70;99.90;;;;;;5054989;28;19916;-76
2022/10/12 01:47:26;;;;;;;;;;;3.80;99.90;;;;;;5063237;28;19935;-76
2022/10/12 01:49:52;;;;;;;;;;;3.80;99.90;;;;;;5083740;28;19920;-76
2022/10/12 01:52:28;;;;;;;;;;;3.80;99.90;;;;;;5083489;28;19947;-76
2022/10/12 01:55:01;;;;;;;;;;;3.80;99.90;;;;;;5044684;28;20003;-76
2022/10/12 01:57:30;;;;;;;;;;;3.80;99.90;;;;;;5075554;28;20287;-76
2022/10/12 02:00:04;;;;;;;;;;;3.80;99.90;;;;;;5063060;28;20058;-76
2022/10/12 02:02:48;;;;;;;;;;;3.70;99.90;;;;;;5064806;28;20332;-76
2022/10/12 02:05:21;;;;;;;;;;;3.70;99.90;;;;;;5072647;28;20022;-76
2022/10/12 02:07:46;;;;;;;;;;;3.70;99.90;;;;;;5063352;28;20178;-76
2022/10/12 02:10:15;;;;;;;;;;;3.60;99.90;;;;;;5082294;28;20109;-77
2022/10/12 02:12:42;;;;;;;;;;;3.60;99.90;;;;;;5064277;28;19973;-76
2022/10/12 02:15:08;;;;;;;;;;;3.60;99.90;;;;;;5059820;28;19912;-76
2022/10/12 02:17:34;;;;;;;;;;;3.60;99.90;;;;;;5037536;28;20053;-76
2022/10/12 02:20:00;;;;;;;;;;;3.70;99.90;;;;;;5062235;28;19916;-76
2022/10/12 02:22:32;;;;;;;;;;;3.70;99.90;;;;;;5042919;28;20434;-76
2022/10/12 02:24:59;;;;;;;;;;;3.80;99.90;;;;;;5079869;28;19964;-77
2022/10/12 02:27:25;;;;;;;;;;;3.80;99.90;;;;;;5079384;28;19928;-77
2022/10/12 02:29:51;;;;;;;;;;;3.80;99.90;;;;;;5049828;28;19966;-76
2022/10/12 02:32:29;;;;;;;;;;;3.90;99.90;;;;;;5038057;28;19960;-76
2022/10/12 02:34:57;;;;;;;;;;;3.90;99.90;;;;;;5066724;28;19920;-77
2022/10/12 02:37:42;;;;;;;;;;;3.90;99.90;;;;;;5043786;28;20290;-77
2022/10/12 02:40:16;;;;;;;;;;;3.90;99.90;;;;;;5041682;28;19956;-76
2022/10/12 02:42:57;;;;;;;;;;;3.90;99.90;;;;;;5043332;28;19916;-76
2022/10/12 02:45:23;;;;;;;;;;;3.90;99.90;;;;;;5028612;28;20371;-76
2022/10/12 02:47:50;;;;;;;;;;;3.80;99.90;;;;;;5024452;28;19913;-76
2022/10/12 02:50:17;;;;;;;;;;;3.80;99.90;;;;;;5061697;28;20395;-76
2022/10/12 02:52:42;;;;;;;;;;;3.70;99.90;;;;;;5073449;28;19927;-76
2022/10/12 02:55:09;;;;;;;;;;;3.80;99.90;;;;;;5043768;28;19917;-76
2022/10/12 02:57:35;;;;;;;;;;;3.80;99.90;;;;;;5061252;28;19986;-76
2022/10/12 03:00:00;;;;;;;;;;;3.90;99.90;;;;;;5076257;28;20383;-76
2022/10/12 03:02:26;;;;;;;;;;;3.90;99.90;;;;;;5052171;28;19945;-76
2022/10/12 03:04:51;;;;;;;;;;;3.90;99.90;;;;;;5055064;28;20011;-76
2022/10/12 03:07:17;;;;;;;;;;;4.00;99.90;;;;;;5078129;28;20435;-76
2022/10/12 03:09:43;;;;;;;;;;;4.00;99.90;;;;;;5066955;28;20018;-76
2022/10/12 03:12:08;;;;;;;;;;;4.00;99.90;;;;;;5066825;28;19916;-76
2022/10/12 03:14:36;;;;;;;;;;;4.00;99.90;;;;;;5081891;28;19921;-76
2022/10/12 03:17:02;;;;;;;;;;;4.00;99.90;;;;;;5056036;28;19928;-76
2022/10/12 03:19:27;;;;;;;;;;;4.00;99.90;;;;;;5078217;28;20018;-76
2022/10/12 03:21:53;;;;;;;;;;;4.00;99.90;;;;;;5070254;28;20023;-76
2022/10/12 03:24:18;;;;;;;;;;;4.00;99.90;;;;;;5085458;28;20019;-76
2022/10/12 03:26:44;;;;;;;;;;;4.10;99.90;;;;;;5065182;28;19924;-76
2022/10/12 03:29:09;;;;;;;;;;;4.20;99.90;;;;;;5072018;28;19924;-76
2022/10/12 03:31:35;;;;;;;;;;;4.30;99.90;;;;;;5085219;28;20054;-76
2022/10/12 03:34:00;;;;;;;;;;;4.40;99.90;;;;;;5067049;28;20040;-76
2022/10/12 03:36:26;;;;;;;;;;;4.50;99.90;;;;;;5045267;28;19974;-76
2022/10/12 03:38:51;;;;;;;;;;;4.70;99.90;;;;;;5058577;28;19960;-76
2022/10/12 03:41:17;;;;;;;;;;;4.80;99.90;;;;;;5047596;28;20394;-76
2022/10/12 03:43:43;;;;;;;;;;;4.90;99.90;;;;;;5056636;28;19912;-76
2022/10/12 03:46:08;;;;;;;;;;;4.90;99.90;;;;;;5027797;28;20319;-76
2022/10/12 03:48:34;;;;;;;;;;;5.00;99.90;;;;;;5052326;28;20071;-76
2022/10/12 03:50:59;;;;;;;;;;;5.10;99.90;;;;;;5052672;28;19959;-77
2022/10/12 03:53:25;;;;;;;;;;;5.20;99.90;;;;;;5074939;28;20459;-75
2022/10/12 03:55:50;;;;;;;;;;;5.10;99.90;;;;;;5084549;28;19922;-76
2022/10/12 03:58:16;;;;;;;;;;;5.10;99.90;;;;;;5078559;28;19916;-76
2022/10/12 04:00:41;;;;;;;;;;;5.20;99.90;;;;;;5057765;28;19935;-76
2022/10/12 04:03:07;;;;;;;;;;;5.10;99.90;;;;;;5079945;28;19916;-76
2022/10/12 04:05:32;;;;;;;;;;;5.10;99.90;;;;;;5069030;28;20278;-76
2022/10/12 04:07:58;;;;;;;;;;;5.20;99.90;;;;;;5066092;28;20348;-76
2022/10/12 04:10:24;;;;;;;;;;;5.20;99.90;;;;;;5051100;28;20347;-76
2022/10/12 04:12:49;;;;;;;;;;;5.20;99.90;;;;;;5045939;28;20335;-76
2022/10/12 04:15:16;;;;;;;;;;;5.30;99.90;;;;;;5064117;28;19920;-76
2022/10/12 04:17:42;;;;;;;;;;;5.30;99.90;;;;;;5055531;28;20037;-76
2022/10/12 04:20:08;;;;;;;;;;;5.20;99.90;;;;;;5062538;28;19923;-76
2022/10/12 04:22:34;;;;;;;;;;;5.20;99.90;;;;;;5072185;28;19942;-76
2022/10/12 04:24:59;;;;;;;;;;;5.20;99.90;;;;;;5051192;28;19917;-76
2022/10/12 04:27:25;;;;;;;;;;;5.10;99.90;;;;;;5079954;28;20312;-76
2022/10/12 04:29:50;;;;;;;;;;;5.10;99.90;;;;;;5070050;28;19920;-76
2022/10/12 04:32:16;;;;;;;;;;;5.10;99.90;;;;;;5066731;28;20315;-76
2022/10/12 04:34:41;;;;;;;;;;;5.10;99.90;;;;;;5079289;28;19951;-76
2022/10/12 04:37:07;;;;;;;;;;;5.10;99.90;;;;;;5061554;28;19959;-75
2022/10/12 04:39:33;;;;;;;;;;;5.10;99.90;;;;;;5037936;28;20015;-76
2022/10/12 04:41:58;;;;;;;;;;;5.10;99.90;;;;;;5084902;28;19955;-76
2022/10/12 04:44:24;;;;;;;;;;;5.10;99.90;;;;;;5050684;28;20388;-76
2022/10/12 04:46:49;;;;;;;;;;;5.00;99.90;;;;;;5044528;28;19974;-76
2022/10/12 04:49:15;;;;;;;;;;;5.00;99.90;;;;;;5070338;28;19916;-76
2022/10/12 04:51:41;;;;;;;;;;;4.90;99.90;;;;;;5063887;28;20345;-76
2022/10/12 04:54:06;;;;;;;;;;;4.90;99.90;;;;;;5045061;28;19913;-76
2022/10/12 04:56:32;;;;;;;;;;;4.90;99.90;;;;;;5058229;28;19924;-76
2022/10/12 04:58:57;;;;;;;;;;;4.90;99.90;;;;;;5079927;28;19917;-76
2022/10/12 05:01:23;;;;;;;;;;;4.90;99.90;;;;;;5065169;28;19917;-76
2022/10/12 05:03:48;;;;;;;;;;;4.90;99.90;;;;;;5079163;28;20048;-75
2022/10/12 05:06:13;;;;;;;;;;;4.90;99.90;;;;;;5063685;28;19925;-76
2022/10/12 05:08:39;;;;;;;;;;;4.90;99.90;;;;;;5064386;28;19970;-74
2022/10/12 05:11:04;;;;;;;;;;;4.90;99.90;;;;;;5063569;28;19916;-76
2022/10/12 05:13:30;;;;;;;;;;;5.00;99.90;;;;;;5063918;28;19921;-75
2022/10/12 05:15:56;;;;;;;;;;;5.00;99.90;;;;;;5052062;28;20027;-77
2022/10/12 05:18:21;;;;;;;;;;;5.00;99.90;;;;;;5043510;28;19963;-77
2022/10/12 05:20:47;;;;;;;;;;;5.00;99.90;;;;;;5074156;28;20373;-77
2022/10/12 05:23:12;;;;;;;;;;;5.00;99.90;;;;;;5063387;28;19917;-77
2022/10/12 05:25:38;;;;;;;;;;;5.00;99.90;;;;;;5071797;28;19921;-77
2022/10/12 05:28:05;;;;;;;;;;;5.00;99.90;;;;;;5062941;28;19967;-77
2022/10/12 05:30:31;;;;;;;;;;;5.00;99.90;;;;;;5060738;28;19924;-76
2022/10/12 05:32:56;;;;;;;;;;;5.00;99.90;;;;;;5080049;28;19964;-76
2022/10/12 05:35:22;;;;;;;;;;;5.00;99.90;;;;;;5079638;28;19963;-76
2022/10/12 05:37:47;;;;;;;;;;;5.00;99.90;;;;;;5044633;28;20012;-76
2022/10/12 05:40:13;;;;;;;;;;;5.00;99.90;;;;;;5047583;28;19971;-76
2022/10/12 05:42:38;;;;;;;;;;;5.00;99.90;;;;;;5063778;28;20025;-76
2022/10/12 05:45:04;;;;;;;;;;;4.90;99.90;;;;;;5041691;28;20156;-76
2022/10/12 05:47:30;;;;;;;;;;;4.80;99.90;;;;;;5045864;28;19917;-76
2022/10/12 05:49:55;;;;;;;;;;;4.80;99.90;;;;;;5043882;28;19917;-76
2022/10/12 05:52:21;;;;;;;;;;;4.80;99.90;;;;;;5077624;28;20459;-76
2022/10/12 05:54:46;;;;;;;;;;;4.70;99.90;;;;;;5077049;28;19916;-76
2022/10/12 05:57:14;;;;;;;;;;;4.80;99.90;;;;;;5063178;28;19917;-76
2022/10/12 05:59:40;;;;;;;;;;;4.80;99.90;;;;;;5035907;28;20371;-77
2022/10/12 06:02:05;;;;;;;;;;;4.80;99.90;;;;;;5043875;28;20163;-76
2022/10/12 06:04:31;;;;;;;;;;;4.90;99.90;;;;;;5081296;28;19947;-76
2022/10/12 06:06:56;;;;;;;;;;;4.90;99.90;;;;;;5083017;28;19920;-76
2022/10/12 06:09:22;;;;;;;;;;;4.90;99.90;;;;;;5054301;28;19922;-76
2022/10/12 06:11:47;;;;;;;;;;;4.90;99.90;;;;;;5076722;28;19916;-76
2022/10/12 06:14:13;;;;;;;;;;;5.00;99.90;;;;;;5044167;28;19917;-76
2022/10/12 06:16:39;;;;;;;;;;;5.10;99.90;;;;;;5068470;28;19976;-77
2022/10/12 06:19:04;;;;;;;;;;;5.10;99.90;;;;;;5046599;28;19917;-76
2022/10/12 06:21:30;;;;;;;;;;;5.10;99.90;;;;;;5045522;28;19957;-76
2022/10/12 06:23:55;;;;;;;;;;;5.20;99.90;;;;;;5054805;28;20353;-76
2022/10/12 06:26:21;;;;;;;;;;;5.20;99.90;;;;;;4706353;28;10000096;-77
2022/10/12 06:28:46;;;;;;;;;;;5.20;99.90;;;;;;5063149;28;19925;-76
2022/10/12 06:31:12;;;;;;;;;;;5.20;99.90;;;;;;5058214;28;20398;-76
2022/10/12 06:33:38;;;;;;;;;;;5.20;99.90;;;;;;5069992;28;19959;-77
2022/10/12 06:36:04;;;;;;;;;;;5.40;99.90;;;;;;5067417;28;19917;-76
2022/10/12 06:38:29;;;;;;;;;;;5.40;99.90;;;;;;5073309;28;19978;-76
2022/10/12 06:40:54;;;;;;;;;;;5.50;99.90;;;;;;5061230;28;20008;-76
2022/10/12 06:43:21;;;;;;;;;;;5.50;99.90;;;;;;5045725;28;19920;-76
2022/10/12 06:45:47;;;;;;;;;;;5.60;99.90;;;;;;5066211;28;19931;-76
2022/10/12 06:48:13;;;;;;;;;;;5.70;99.90;;;;;;5040515;28;19916;-76
2022/10/12 06:50:38;;;;;;;;;;;5.70;99.90;;;;;;5078608;28;20046;-77
2022/10/12 06:53:04;;;;;;;;;;;5.80;99.90;;;;;;5065196;28;19947;-76
2022/10/12 06:55:29;;;;;;;;;;;5.80;99.90;;;;;;5052313;28;19916;-77
2022/10/12 06:57:55;;;;;;;;;;;5.90;99.90;;;;;;5048081;28;19943;-77
2022/10/12 07:00:20;;;;;;;;;;;6.00;99.90;;;;;;5073752;28;19957;-76
2022/10/12 07:02:49;;;;;;;;;;;6.10;99.90;;;;;;5067584;28;19916;-77
2022/10/12 07:05:15;;;;;;;;;;;6.20;99.90;;;;;;5058407;28;19924;-76
2022/10/12 07:07:41;;;;;;;;;;;6.20;99.90;;;;;;5046540;28;19921;-76
2022/10/12 07:10:07;;;;;;;;;;;6.30;99.90;;;;;;5058429;28;19982;-76
2022/10/12 07:12:34;;;;;;;;;;;6.30;99.90;;;;;;5040012;28;19916;-76
2022/10/12 07:15:00;;;;;;;;;;;6.40;99.90;;;;;;5060518;28;19974;-76
2022/10/12 07:17:25;;;;;;;;;;;6.40;99.90;;;;;;5034164;28;19960;-76
2022/10/12 07:19:51;;;;;;;;;;;6.50;99.90;;;;;;5033959;28;20073;-76
2022/10/12 07:22:16;;;;;;;;;;;6.60;99.90;;;;;;5053844;28;19973;-76
2022/10/12 07:24:42;;;;;;;;;;;6.70;99.90;;;;;;5068295;28;20035;-75
2022/10/12 07:27:08;;;;;;;;;;;6.80;99.90;;;;;;5063133;28;20413;-76
2022/10/12 07:29:34;;;;;;;;;;;6.90;99.90;;;;;;5077691;28;20418;-75
2022/10/12 07:32:00;;;;;;;;;;;6.90;99.90;;;;;;5064148;28;19912;-74
2022/10/12 07:34:26;;;;;;;;;;;7.00;99.90;;;;;;5063059;28;20386;-75
2022/10/12 07:36:52;;;;;;;;;;;7.20;99.90;;;;;;5044402;28;19997;-75
2022/10/12 07:39:18;;;;;;;;;;;7.30;99.90;;;;;;5061704;28;20010;-76
2022/10/12 07:41:43;;;;;;;;;;;7.40;99.90;;;;;;5078319;28;20191;-75
2022/10/12 07:44:09;;;;;;;;;;;7.50;99.90;;;;;;5046653;28;19912;-76
2022/10/12 07:46:34;;;;;;;;;;;7.70;99.90;;;;;;5039231;28;20626;-75
2022/10/12 07:49:00;;;;;;;;;;;7.80;99.90;;;;;;5054620;28;19916;-76
2022/10/12 07:51:25;;;;;;;;;;;7.90;99.90;;;;;;5066597;28;19928;-76
2022/10/12 07:53:51;;;;;;;;;;;8.00;99.90;;;;;;5064629;28;19917;-76
2022/10/12 07:56:17;;;;;;;;;;;8.10;99.90;;;;;;5065873;28;19920;-76
2022/10/12 07:58:52;;;;;;;;;;;8.20;99.90;;;;;;5065437;28;20234;-76
2022/10/12 08:01:18;;;;;;;;;;;8.30;99.90;;;;;;5065636;28;19916;-76
2022/10/12 08:03:44;;;;;;;;;;;8.40;99.90;;;;;;5064527;28;19939;-76
2022/10/12 08:06:11;;;;;;;;;;;8.60;99.90;;;;;;5061140;28;19924;-76
2022/10/12 08:08:36;;;;;;;;;;;8.70;99.90;;;;;;5041882;28;20203;-76
2022/10/12 08:11:03;;;;;;;;;;;8.80;99.90;;;;;;5068032;28;19916;-76
2022/10/12 08:13:29;;;;;;;;;;;9.00;99.90;;;;;;5074112;28;19924;-76
2022/10/12 08:15:54;;;;;;;;;;;9.10;99.90;;;;;;5073082;28;19916;-76
2022/10/12 08:18:20;;;;;;;;;;;9.50;99.90;;;;;;5063837;28;20260;-76
2022/10/12 08:20:45;;;;;;;;;;;9.90;99.90;;;;;;5063820;28;20349;-76
2022/10/12 08:23:11;;;;;;;;;;;10.80;99.90;;;;;;5052977;28;19963;-76
2022/10/12 08:25:36;;;;;;;;;;;11.80;99.90;;;;;;5049401;28;19921;-76
2022/10/12 08:28:02;;;;;;;;;;;12.20;99.90;;;;;;5073531;28;19971;-78
2022/10/12 08:30:28;;;;;;;;;;;12.30;99.90;;;;;;5060594;28;19916;-78
2022/10/12 08:32:53;;;;;;;;;;;12.20;99.90;;;;;;5033890;28;19996;-78
2022/10/12 08:35:19;;;;;;;;;;;12.00;99.90;;;;;;5048884;28;19930;-78
2022/10/12 08:37:44;;;;;;;;;;;11.70;99.90;;;;;;5056710;28;20542;-78
2022/10/12 08:40:19;;;;;;;;;;;11.50;99.90;;;;;;5027174;28;19916;-79
2022/10/12 08:42:51;;;;;;;;;;;11.20;99.90;;;;;;5056563;28;20193;-79
2022/10/12 08:45:20;;;;;;;;;;;11.00;99.90;;;;;;5037818;28;20372;-78
2022/10/12 08:47:50;;;;;;;;;;;11.70;99.90;;;;;;5058841;28;19920;-79
2022/10/12 08:50:20;;;;;;;;;;;14.20;99.90;;;;;;5036712;28;19916;-79
2022/10/12 08:52:53;;;;;;;;;;;17.00;99.90;;;;;;5061830;28;19916;-79
2022/10/12 08:55:33;;;;;;;;;;;19.20;92.80;;;;;;5059739;28;20009;-79
2022/10/12 08:57:58;;;;;;;;;;;22.10;82.80;;;;;;5055255;28;19921;-79
2022/10/12 09:00:24;;;;;;;;;;;24.10;66.80;;;;;;5061726;28;19927;-79
2022/10/12 09:02:49;;;;;;;;;;;25.00;62.60;;;;;;5073916;28;19920;-79
2022/10/12 09:05:21;;;;;;;;;;;24.50;59.20;;;;;;5058152;28;19923;-79
2022/10/12 09:07:54;;;;;;;;;;;24.40;61.70;;;;;;5051508;28;19936;-80
2022/10/12 09:10:22;;;;;;;;;;;22.70;63.70;;;;;;5066806;28;19920;-80
2022/10/12 09:13:00;;;;;;;;;;;20.90;67.80;;;;;;5067336;28;19916;-78
2022/10/12 09:15:29;;;;;;;;;;;19.10;75.20;;;;;;5052425;28;19961;-78
2022/10/12 09:17:55;;;;;;;;;;;19.10;78.40;;;;;;5050325;28;20661;-78
2022/10/12 09:20:20;;;;;;;;;;;18.40;81.30;;;;;;5049434;28;19917;-78
2022/10/12 09:22:47;;;;;;;;;;;19.30;81.30;;;;;;5048755;28;20187;-78
2022/10/12 09:25:13;;;;;;;;;;;21.30;76.30;;;;;;5045661;28;19916;-78
2022/10/12 09:27:39;;;;;;;;;;;23.40;68.70;;;;;;5047547;28;19950;-78
2022/10/12 09:30:05;;;;;;;;;;;24.10;63.50;;;;;;5053065;28;19917;-78
2022/10/12 09:32:37;;;;;;;;;;;24.50;62.20;;;;;;5049837;28;20024;-78
2022/10/12 09:35:03;;;;;;;;;;;24.90;59.60;;;;;;5046357;28;20126;-78
2022/10/12 09:37:31;;;;;;;;;;;24.00;61.60;;;;;;5045886;28;19926;-78
2022/10/12 09:39:57;;;;;;;;;;;24.60;64.50;;;;;;5048218;28;19970;-78
2022/10/12 09:42:22;;;;;;;;;;;25.60;62.30;;;;;;5031414;28;20497;-78
2022/10/12 09:44:49;;;;;;;;;;;26.30;58.80;;;;;;5045901;28;19951;-78
2022/10/12 09:47:22;;;;;;;;;;;27.00;58.00;;;;;;5063586;28;20277;-79
2022/10/12 09:49:51;;;;;;;;;;;27.70;56.40;;;;;;5071509;28;20421;-78
2022/10/12 09:52:19;;;;;;;;;;;28.00;55.30;;;;;;5045799;28;19927;-78
2022/10/12 09:54:46;;;;;;;;;;;28.10;51.80;;;;;;5037893;28;19992;-78
2022/10/12 09:57:32;;;;;;;;;;;26.20;56.00;;;;;;5020948;28;19989;-78
2022/10/12 09:59:58;;;;;;;;;;;24.70;60.20;;;;;;5062190;28;19916;-78
2022/10/12 10:02:25;;;;;;;;;;;23.10;62.30;;;;;;5042889;28;19982;-78
2022/10/12 10:04:51;;;;;;;;;;;22.30;64.90;;;;;;5065792;28;20144;-78
2022/10/12 10:07:26;;;;;;;;;;;22.50;67.10;;;;;;5048634;28;20302;-78
2022/10/12 10:10:09;;;;;;;;;;;23.00;66.70;;;;;;5077540;28;20347;-78
2022/10/12 10:12:42;;;;;;;;;;;23.70;62.80;;;;;;5064397;28;19935;-78
2022/10/12 10:15:18;;;;;;;;;;;24.30;66.00;;;;;;5050605;28;19924;-79
2022/10/12 10:17:47;;;;;;;;;;;24.10;63.20;;;;;;5051673;28;19969;-78
2022/10/12 10:20:21;;;;;;;;;;;24.00;64.00;;;;;;5051062;28;20457;-78
2022/10/12 10:22:47;;;;;;;;;;;23.60;65.80;;;;;;5063548;28;19917;-78
2022/10/12 10:25:18;;;;;;;;;;;23.60;64.00;;;;;;5061240;28;19920;-78
2022/10/12 10:27:46;;;;;;;;;;;23.00;65.40;;;;;;5045119;28;20390;-77
2022/10/12 10:30:14;;;;;;;;;;;23.50;67.30;;;;;;5072507;28;19932;-77
2022/10/12 10:32:40;;;;;;;;;;;23.70;63.90;;;;;;5045727;28;19920;-77
2022/10/12 10:35:11;;;;;;;;;;;23.10;64.80;;;;;;5061841;28;19912;-78
2022/10/12 10:37:53;;;;;;;;;;;22.30;69.30;;;;;;5063136;28;19916;-77
2022/10/12 10:40:24;;;;;;;;;;;21.10;70.30;;;;;;5048911;28;20628;-77
2022/10/12 10:42:52;;;;;;;;;;;20.20;72.50;;;;;;5056087;28;19921;-77
2022/10/12 10:45:25;;;;;;;;;;;19.90;80.10;;;;;;5053570;28;19924;-77
2022/10/12 10:47:55;;;;;;;;;;;19.70;86.20;;;;;;5067610;28;20027;-77
2022/10/12 10:50:26;;;;;;;;;;;19.30;90.30;;;;;;5067073;28;20460;-77
2022/10/12 10:52:53;;;;;;;;;;;19.20;85.40;;;;;;5052156;28;19916;-77
2022/10/12 10:55:20;;;;;;;;;;;19.30;91.30;;;;;;5051434;28;20271;-77
2022/10/12 10:58:03;;;;;;;;;;;19.50;85.00;;;;;;5060068;28;20857;-77
2022/10/12 11:00:30;;;;;;;;;;;19.60;82.40;;;;;;5054890;28;19967;-76
2022/10/12 11:02:58;;;;;;;;;;;19.70;80.50;;;;;;5067893;28;20444;-77
2022/10/12 11:05:27;;;;;;;;;;;20.30;78.80;;;;;;5070046;28;19956;-77
2022/10/12 11:07:54;;;;;;;;;;;22.10;79.80;;;;;;5055449;28;19924;-77
2022/10/12 11:10:21;;;;;;;;;;;23.70;65.20;;;;;;5058687;28;19927;-77
2022/10/12 11:12:49;;;;;;;;;;;23.50;71.70;;;;;;5046231;28;20078;-78
2022/10/12 11:15:21;;;;;;;;;;;22.80;64.90;;;;;;5051103;28;19916;-75
2022/10/12 11:17:48;;;;;;;;;;;22.40;67.20;;;;;;5028626;28;19916;-76
2022/10/12 11:20:16;;;;;;;;;;;21.90;68.90;;;;;;5038909;28;20323;-78
2022/10/12 11:22:53;;;;;;;;;;;22.00;72.50;;;;;;5053073;28;20353;-78
2022/10/12 11:25:32;;;;;;;;;;;22.20;71.60;;;;;;5055604;28;20012;-76
2022/10/12 11:27:58;;;;;;;;;;;22.00;68.90;;;;;;5058091;28;19924;-76
2022/10/12 11:30:25;;;;;;;;;;;22.10;75.50;;;;;;5063229;28;19981;-75
2022/10/12 11:32:53;;;;;;;;;;;21.80;70.40;;;;;;5075581;28;20003;-77
2022/10/12 11:35:25;;;;;;;;;;;21.40;75.10;;;;;;5063880;28;20268;-77
2022/10/12 11:38:04;;;;;;;;;;;21.60;75.70;;;;;;5075133;28;19966;-76
2022/10/12 11:40:39;;;;;;;;;;;21.90;76.80;;;;;;5071832;28;19917;-76
2022/10/12 11:43:06;;;;;;;;;;;21.80;72.70;;;;;;5068749;28;20029;-78
2022/10/12 11:45:40;;;;;;;;;;;21.30;73.80;;;;;;5075250;28;20042;-79
2022/10/12 11:48:09;;;;;;;;;;;21.20;72.60;;;;;;5075386;28;19998;-77
2022/10/12 11:50:37;;;;;;;;;;;21.10;72.70;;;;;;5050464;28;19916;-76
2022/10/12 11:53:05;;;;;;;;;;;20.90;76.50;;;;;;5056615;28;20288;-79
2022/10/12 11:55:45;;;;;;;;;;;21.10;73.40;;;;;;5074966;28;19916;-76
2022/10/12 11:58:31;;;;;;;;;;;21.50;80.00;;;;;;5045273;28;20448;-78
2022/10/12 12:00:59;;;;;;;;;;;21.20;75.00;;;;;;5046696;28;19939;-79
2022/10/12 12:03:37;;;;;;;;;;;21.00;73.40;;;;;;5074376;28;19974;-78
2022/10/12 12:06:21;;;;;;;;;;;20.70;75.20;;;;;;5066720;28;20375;-78
2022/10/12 12:08:46;;;;;;;;;;;20.20;77.00;;;;;;5065569;28;19917;-79
2022/10/12 12:11:20;;;;;;;;;;;20.40;82.10;;;;;;5079392;28;20340;-76
2022/10/12 12:13:46;;;;;;;;;;;20.60;80.30;;;;;;5063176;28;19955;-78
2022/10/12 12:16:11;;;;;;;;;;;20.50;78.60;;;;;;5043715;28;20815;-76
2022/10/12 12:18:55;;;;;;;;;;;20.20;77.40;;;;;;5080156;28;20063;-78
2022/10/12 12:21:21;;;;;;;;;;;19.90;82.90;;;;;;5069689;28;20011;-76
2022/10/12 12:23:52;;;;;;;;;;;19.80;80.00;;;;;;5056980;28;20034;-78
2022/10/12 12:26:19;;;;;;;;;;;19.50;81.00;;;;;;5043343;28;20158;-76
2022/10/12 12:28:45;;;;;;;;;;;19.20;85.50;;;;;;5074864;28;19950;-78
2022/10/12 12:31:23;;;;;;;;;;;19.00;87.00;;;;;;5062788;28;20376;-76
2022/10/12 12:34:09;;;;;;;;;;;19.00;89.10;;;;;;5071249;28;19940;-76
2022/10/12 12:36:36;;;;;;;;;;;19.00;87.40;;;;;;5065007;28;20292;-77
2022/10/12 12:39:03;;;;;;;;;;;18.90;87.10;;;;;;5043509;28;19916;-77
2022/10/12 12:41:47;;;;;;;;;;;18.80;92.00;;;;;;5043237;28;19927;-77
2022/10/12 12:44:31;;;;;;;;;;;18.90;92.60;;;;;;5057419;28;19920;-77
2022/10/12 12:46:56;;;;;;;;;;;19.10;94.10;;;;;;5070753;28;20185;-77
2022/10/12 12:49:26;;;;;;;;;;;19.40;90.90;;;;;;5059422;28;19920;-77
2022/10/12 12:51:53;;;;;;;;;;;19.20;90.40;;;;;;4713073;28;10000346;-76
2022/10/12 12:54:20;;;;;;;;;;;19.00;91.40;;;;;;5036857;28;19921;-77
2022/10/12 12:56:50;;;;;;;;;;;18.90;94.00;;;;;;5054453;28;19923;-76
2022/10/12 12:59:15;;;;;;;;;;;18.90;92.90;;;;;;5033907;28;20031;-77
2022/10/12 13:01:53;;;;;;;;;;;19.10;92.20;;;;;;5056218;28;20383;-76
2022/10/12 13:04:24;;;;;;;;;;;19.40;90.80;;;;;;5045343;28;19916;-77
2022/10/12 13:06:50;;;;;;;;;;;19.60;90.10;;;;;;5045361;28;19977;-77
2022/10/12 13:09:24;;;;;;;;;;;19.70;90.00;;;;;;5067368;28;19920;-76
2022/10/12 13:12:19;;;;;;;;;;;19.70;88.90;;;;;;5070637;28;19917;-77
2022/10/12 13:15:03;;;;;;;;;;;19.60;87.30;;;;;;5052453;28;19916;-77
2022/10/12 13:17:41;;;;;;;;;;;19.50;86.20;;;;;;5074026;28;19916;-77
2022/10/12 13:20:17;;;;;;;;;;;19.60;87.10;;;;;;5078191;28;19913;-77
2022/10/12 13:22:44;;;;;;;;;;;19.60;89.50;;;;;;5055439;28;19916;-76
2022/10/12 13:25:19;;;;;;;;;;;19.50;91.10;;;;;;5056242;28;19948;-76
2022/10/12 13:27:46;;;;;;;;;;;19.40;91.40;;;;;;5059253;28;19946;-77
2022/10/12 13:30:30;;;;;;;;;;;19.20;92.40;;;;;;5070447;28;20001;-76
2022/10/12 13:33:05;;;;;;;;;;;19.00;92.30;;;;;;5067650;28;20352;-77
2022/10/12 13:35:33;;;;;;;;;;;19.00;93.40;;;;;;5050370;28;20240;-76
2022/10/12 13:38:00;;;;;;;;;;;18.90;95.00;;;;;;5052842;28;19917;-77
2022/10/12 13:40:30;;;;;;;;;;;18.70;97.50;;;;;;5041618;28;19918;-77
2022/10/12 13:42:56;;;;;;;;;;;18.60;99.90;;;;;;4691373;28;9999809;-77
2022/10/12 13:45:21;;;;;;;;;;;18.70;99.90;;;;;;5067239;28;19916;-76
2022/10/12 13:47:47;;;;;;;;;;;18.70;99.90;;;;;;5043086;28;20398;-76
2022/10/12 13:50:17;;;;;;;;;;;19.20;99.90;;;;;;5062751;28;20412;-76
2022/10/12 13:52:50;;;;;;;;;;;19.70;99.90;;;;;;5049413;28;19920;-77
2022/10/12 13:55:16;;;;;;;;;;;20.00;99.20;;;;;;5034549;28;19916;-76
2022/10/12 13:57:42;;;;;;;;;;;20.20;98.40;;;;;;5071910;28;20381;-77
2022/10/12 14:00:16;;;;;;;;;;;20.10;99.00;;;;;;5034339;28;19958;-76
2022/10/12 14:02:52;;;;;;;;;;;19.70;97.40;;;;;;5042280;28;20038;-76
2022/10/12 14:05:18;;;;;;;;;;;19.30;98.50;;;;;;5063912;28;20697;-76
2022/10/12 14:07:45;;;;;;;;;;;19.10;99.90;;;;;;5055488;28;19924;-76
2022/10/12 14:10:16;;;;;;;;;;;18.90;99.90;;;;;;5047686;28;19938;-76
2022/10/12 14:12:45;;;;;;;;;;;18.70;99.90;;;;;;5058089;28;20420;-76
2022/10/12 14:15:12;;;;;;;;;;;18.50;99.90;;;;;;5072593;28;19916;-76
2022/10/12 14:17:45;;;;;;;;;;;18.30;99.90;;;;;;5059758;28;19969;-76
2022/10/12 14:20:16;;;;;;;;;;;18.00;99.90;;;;;;5056850;28;19999;-76
2022/10/12 14:22:46;;;;;;;;;;;17.90;99.90;;;;;;5074045;28;19920;-77
2022/10/12 14:25:30;;;;;;;;;;;17.90;99.90;;;;;;5071236;28;19916;-76
2022/10/12 14:27:59;;;;;;;;;;;17.80;99.90;;;;;;5054225;28;20355;-76
2022/10/12 14:30:29;;;;;;;;;;;17.70;99.90;;;;;;5064307;28;20086;-75